createdAt,value
2024-03-08T00:01:01.212Z,2.03
2024-03-08T00:03:49.864Z,1.93
2024-03-08T00:06:22.920Z,1.85
2024-03-08T00:08:56.078Z,1.78
2024-03-08T00:11:29.168Z,1.71
2024-03-08T00:14:02.269Z,1.65
2024-03-08T00:16:35.418Z,1.59
2024-03-08T00:19:08.291Z,1.53
2024-03-08T00:21:41.473Z,1.47
2024-03-08T00:24:16.868Z,1.42
2024-03-08T00:26:49.918Z,1.36
2024-03-08T00:29:23.685Z,1.29
2024-03-08T00:31:56.574Z,1.24
2024-03-08T00:34:29.699Z,1.18
2024-03-08T00:37:09.925Z,1.12
2024-03-08T00:39:43.622Z,1.06
2024-03-08T00:42:17.853Z,1.00
2024-03-08T00:44:53.168Z,0.95
2024-03-08T00:47:26.512Z,0.88
2024-03-08T00:50:00.109Z,0.83
2024-03-08T00:52:36.292Z,0.79
2024-03-08T00:55:12.304Z,0.75
2024-03-08T00:57:46.740Z,0.70
2024-03-08T01:00:23.061Z,0.67
2024-03-08T01:02:56.741Z,0.63
2024-03-08T01:05:30.281Z,0.60
2024-03-08T01:08:04.521Z,0.55
2024-03-08T01:10:38.672Z,0.51
2024-03-08T01:13:12.129Z,0.46
2024-03-08T01:15:46.260Z,0.42
2024-03-08T01:18:22.714Z,0.39
2024-03-08T01:20:55.722Z,0.37
2024-03-08T01:23:28.855Z,0.34
2024-03-08T01:26:01.677Z,0.31
2024-03-08T01:28:35.914Z,0.27
2024-03-08T01:31:10.758Z,0.24
2024-03-08T01:33:52.044Z,0.19
2024-03-08T01:36:26.188Z,0.14
2024-03-08T01:38:59.174Z,0.10
2024-03-08T01:41:47.725Z,0.07
2024-03-08T01:44:21.111Z,0.03
2024-03-08T01:46:55.711Z,-0.01
2024-03-08T01:49:30.834Z,-0.04
2024-03-08T01:52:03.993Z,-0.08
2024-03-08T01:54:38.164Z,-0.11
2024-03-08T01:57:13.590Z,-0.15
2024-03-08T01:59:47.353Z,-0.17
2024-03-08T02:02:22.496Z,-0.19
2024-03-08T02:04:55.888Z,-0.20
2024-03-08T02:07:29.081Z,-0.22
2024-03-08T02:10:02.052Z,-0.24
2024-03-08T02:12:35.245Z,-0.26
2024-03-08T02:15:09.375Z,-0.28
2024-03-08T02:17:42.971Z,-0.30
2024-03-08T02:20:16.592Z,-0.34
2024-03-08T02:22:49.702Z,-0.35
2024-03-08T02:25:23.199Z,-0.38
2024-03-08T02:27:56.010Z,-0.39
2024-03-08T02:30:31.014Z,-0.40
2024-03-08T02:33:04.005Z,-0.42
2024-03-08T02:35:37.310Z,-0.44
2024-03-08T02:38:10.564Z,-0.47
2024-03-08T02:40:43.518Z,-0.49
2024-03-08T02:43:21.173Z,-0.52
2024-03-08T02:45:55.534Z,-0.57
2024-03-08T02:48:28.807Z,-0.60
2024-03-08T02:51:03.626Z,-0.64
2024-03-08T02:53:36.738Z,-0.68
2024-03-08T02:56:14.836Z,-0.71
2024-03-08T02:58:50.190Z,-0.74
2024-03-08T03:01:24.263Z,-0.77
2024-03-08T03:03:57.142Z,-0.80
2024-03-08T03:06:30.281Z,-0.82
2024-03-08T03:09:03.476Z,-0.85
2024-03-08T03:11:36.623Z,-0.88
2024-03-08T03:14:09.795Z,-0.91
2024-03-08T03:16:45.638Z,-0.92
2024-03-08T03:19:19.449Z,-0.96
2024-03-08T03:21:53.447Z,-0.95
2024-03-08T03:24:26.609Z,-0.97
2024-03-08T03:27:03.488Z,-0.99
2024-03-08T03:29:36.506Z,-1.02
2024-03-08T03:32:09.852Z,-1.03
2024-03-08T03:34:46.266Z,-1.04
2024-03-08T03:37:19.445Z,-1.06
2024-03-08T03:39:54.855Z,-1.07
2024-03-08T03:42:28.108Z,-1.10
2024-03-08T03:45:01.514Z,-1.12
2024-03-08T03:47:34.966Z,-1.13
2024-03-08T03:50:11.140Z,-1.15
2024-03-08T03:52:44.888Z,-1.17
2024-03-08T03:55:18.417Z,-1.19
2024-03-08T03:57:51.477Z,-1.20
2024-03-08T04:00:24.841Z,-1.21
2024-03-08T04:03:00.909Z,-1.22
2024-03-08T04:05:34.191Z,-1.24
2024-03-08T04:08:08.245Z,-1.26
2024-03-08T04:10:43.281Z,-1.29
2024-03-08T04:13:17.692Z,-1.31
2024-03-08T04:16:01.462Z,-1.33
2024-03-08T04:18:37.196Z,-1.35
2024-03-08T04:21:10.516Z,-1.36
2024-03-08T04:23:46.746Z,-1.37
2024-03-08T04:26:20.035Z,-1.39
2024-03-08T04:28:53.273Z,-1.39
2024-03-08T04:31:28.371Z,-1.40
2024-03-08T04:34:01.403Z,-1.41
2024-03-08T04:36:39.015Z,-1.42
2024-03-08T04:39:15.178Z,-1.43
2024-03-08T04:41:49.544Z,-1.45
2024-03-08T04:44:22.697Z,-1.47
2024-03-08T04:46:55.660Z,-1.48
2024-03-08T04:49:29.846Z,-1.50
2024-03-08T04:52:05.384Z,-1.53
2024-03-08T04:54:38.548Z,-1.55
2024-03-08T04:57:13.091Z,-1.57
2024-03-08T04:59:46.250Z,-1.61
2024-03-08T05:02:20.346Z,-1.64
2024-03-08T05:04:53.230Z,-1.65
2024-03-08T05:07:26.416Z,-1.67
2024-03-08T05:09:59.501Z,-1.68
2024-03-08T05:12:32.831Z,-1.71
2024-03-08T05:15:06.500Z,-1.70
2024-03-08T05:17:41.868Z,-1.70
2024-03-08T05:20:15.952Z,-1.68
2024-03-08T05:22:49.182Z,-1.68
2024-03-08T05:25:22.539Z,-1.68
2024-03-08T05:27:55.531Z,-1.68
2024-03-08T05:30:28.727Z,-1.69
2024-03-08T05:33:02.490Z,-1.69
2024-03-08T05:35:37.328Z,-1.69
2024-03-08T05:38:10.445Z,-1.68
2024-03-08T05:40:46.872Z,-1.67
2024-03-08T05:43:21.004Z,-1.65
2024-03-08T05:45:57.871Z,-1.62
2024-03-08T05:48:31.093Z,-1.59
2024-03-08T05:51:06.022Z,-1.56
2024-03-08T05:53:41.112Z,-1.53
2024-03-08T05:56:14.036Z,-1.49
2024-03-08T05:58:54.505Z,-1.45
2024-03-08T06:01:27.346Z,-1.40
2024-03-08T06:04:02.340Z,-1.36
2024-03-08T06:06:35.656Z,-1.32
2024-03-08T06:09:13.728Z,-1.28
2024-03-08T06:11:47.705Z,-1.22
2024-03-08T06:14:21.208Z,-1.16
2024-03-08T06:16:54.732Z,-1.09
2024-03-08T06:19:28.130Z,-1.02
2024-03-08T06:22:02.273Z,-0.97
2024-03-08T06:24:38.030Z,-0.92
2024-03-08T06:27:11.159Z,-0.85
2024-03-08T06:29:45.050Z,-0.81
2024-03-08T06:32:20.315Z,-0.75
2024-03-08T06:34:53.218Z,-0.71
2024-03-08T06:37:26.268Z,-0.65
2024-03-08T06:39:59.456Z,-0.60
2024-03-08T06:42:35.311Z,-0.54
2024-03-08T06:45:10.760Z,-0.48
2024-03-08T06:47:45.686Z,-0.39
2024-03-08T06:50:19.256Z,-0.28
2024-03-08T06:52:55.105Z,-0.18
2024-03-08T06:55:28.411Z,-0.12
2024-03-08T06:58:02.270Z,-0.04
2024-03-08T07:00:35.464Z,0.03
2024-03-08T07:03:13.895Z,0.09
2024-03-08T07:05:49.905Z,0.16
2024-03-08T07:08:24.619Z,0.22
2024-03-08T07:11:00.478Z,0.27
2024-03-08T07:13:33.951Z,0.32
2024-03-08T07:16:11.785Z,0.38
2024-03-08T07:18:45.827Z,0.47
2024-03-08T07:21:20.681Z,0.55
2024-03-08T07:24:11.621Z,0.61
2024-03-08T07:26:44.918Z,0.70
2024-03-08T07:29:18.131Z,0.80
2024-03-08T07:32:02.762Z,0.89
2024-03-08T07:34:36.198Z,0.99
2024-03-08T07:37:12.505Z,1.06
2024-03-08T07:39:46.281Z,1.13
2024-03-08T07:42:19.707Z,1.19
2024-03-08T07:44:54.400Z,1.26
2024-03-08T07:47:27.812Z,1.34
2024-03-08T07:50:03.625Z,1.42
2024-03-08T07:52:38.416Z,1.51
2024-03-08T07:55:14.212Z,1.58
2024-03-08T07:57:49.225Z,1.67
2024-03-08T08:00:23.450Z,1.77
2024-03-08T08:02:56.436Z,1.87
2024-03-08T08:05:31.394Z,1.95
2024-03-08T08:08:07.643Z,2.02
2024-03-08T08:10:41.084Z,2.10
2024-03-08T08:13:14.434Z,2.19
2024-03-08T08:15:48.763Z,2.29
2024-03-08T08:18:26.268Z,2.36
2024-03-08T08:20:59.253Z,2.43
2024-03-08T08:23:33.675Z,2.51
2024-03-08T08:26:10.459Z,2.58
2024-03-08T08:28:47.667Z,2.64
2024-03-08T08:31:24.389Z,2.71
2024-03-08T08:33:59.810Z,2.78
2024-03-08T08:36:33.149Z,2.86
2024-03-08T08:39:13.033Z,2.95
2024-03-08T08:41:49.481Z,3.05
2024-03-08T08:44:22.622Z,3.15
2024-03-08T08:46:59.902Z,3.25
2024-03-08T08:49:40.829Z,3.33
2024-03-08T08:52:17.095Z,3.41
2024-03-08T08:54:52.556Z,3.51
2024-03-08T08:57:26.991Z,3.63
2024-03-08T09:00:02.834Z,3.75
2024-03-08T09:02:37.494Z,3.86
2024-03-08T09:05:11.906Z,3.95
2024-03-08T09:07:47.161Z,4.01
2024-03-08T09:10:20.759Z,4.04
2024-03-08T09:12:54.057Z,4.09
2024-03-08T09:15:30.954Z,4.12
2024-03-08T09:18:06.598Z,4.16
2024-03-08T09:20:42.834Z,4.22
2024-03-08T09:23:18.340Z,4.26
2024-03-08T09:25:53.488Z,4.33
2024-03-08T09:28:29.097Z,4.42
2024-03-08T09:31:03.527Z,4.50
2024-03-08T09:33:37.586Z,4.58
2024-03-08T09:36:14.153Z,4.68
2024-03-08T09:38:50.968Z,4.81
2024-03-08T09:41:24.676Z,4.93
2024-03-08T09:44:05.590Z,5.02
2024-03-08T09:46:52.835Z,5.15
2024-03-08T09:49:26.960Z,5.30
2024-03-08T09:51:59.986Z,5.44
2024-03-08T09:54:33.560Z,5.55
2024-03-08T09:57:09.854Z,5.70
2024-03-08T09:59:48.408Z,5.76
2024-03-08T10:02:22.906Z,5.79
2024-03-08T10:04:56.714Z,5.78
2024-03-08T10:07:30.793Z,5.82
2024-03-08T10:10:04.817Z,5.90
2024-03-08T10:12:38.320Z,6.03
2024-03-08T10:15:15.064Z,6.14
2024-03-08T10:17:50.595Z,6.19
2024-03-08T10:20:25.526Z,6.22
2024-03-08T10:23:07.395Z,6.19
2024-03-08T10:25:50.610Z,6.22
2024-03-08T10:28:26.776Z,6.27
2024-03-08T10:31:03.705Z,6.27
2024-03-08T10:33:40.325Z,6.27
2024-03-08T10:36:16.418Z,6.25
2024-03-08T10:38:51.240Z,6.24
2024-03-08T10:41:25.644Z,6.30
2024-03-08T10:44:18.236Z,6.37
2024-03-08T10:47:11.065Z,6.41
2024-03-08T10:50:08.686Z,6.46
2024-03-08T10:52:42.122Z,6.53
2024-03-08T10:55:18.929Z,6.56
2024-03-08T10:57:58.768Z,6.57
2024-03-08T11:00:33.852Z,6.61
2024-03-08T11:03:07.703Z,6.63
2024-03-08T11:05:45.446Z,6.64
2024-03-08T11:08:24.906Z,6.63
2024-03-08T11:11:02.158Z,6.63
2024-03-08T11:13:45.264Z,6.66
2024-03-08T11:16:43.651Z,6.64
2024-03-08T11:19:33.076Z,6.64
2024-03-08T11:22:09.342Z,6.64
2024-03-08T11:24:46.955Z,6.70
2024-03-08T11:27:23.246Z,6.74
2024-03-08T11:30:17.263Z,6.78
2024-03-08T11:32:53.355Z,6.82
2024-03-08T11:35:28.595Z,6.85
2024-03-08T11:38:04.076Z,6.89
2024-03-08T11:40:37.938Z,6.86
2024-03-08T11:43:15.939Z,6.88
2024-03-08T11:45:49.845Z,6.90
2024-03-08T11:48:25.720Z,6.92
2024-03-08T11:51:07.637Z,6.93
2024-03-08T11:53:42.344Z,6.96
2024-03-08T11:56:21.752Z,7.00
2024-03-08T11:59:16.208Z,7.03
2024-03-08T12:02:04.843Z,7.01
2024-03-08T12:04:43.447Z,7.03
2024-03-08T12:07:20.688Z,7.11
2024-03-08T12:10:20.567Z,7.17
2024-03-08T12:12:54.578Z,7.22
2024-03-08T12:15:28.916Z,7.26
2024-03-08T12:18:03.747Z,7.28
2024-03-08T12:20:37.479Z,7.29
2024-03-08T12:23:25.922Z,7.30
2024-03-08T12:26:00.684Z,7.35
2024-03-08T12:28:34.813Z,7.39
2024-03-08T12:31:13.819Z,7.42
2024-03-08T12:33:58.616Z,7.46
2024-03-08T12:36:32.219Z,7.51
2024-03-08T12:39:06.658Z,7.56
2024-03-08T12:41:43.967Z,7.59
2024-03-08T12:44:17.905Z,7.65
2024-03-08T12:46:56.461Z,7.70
2024-03-08T12:49:32.764Z,7.69
2024-03-08T12:52:07.409Z,7.68
2024-03-08T12:54:41.442Z,7.70
2024-03-08T12:57:15.926Z,7.72
2024-03-08T12:59:51.617Z,7.76
2024-03-08T13:02:26.233Z,7.78
2024-03-08T13:05:00.044Z,7.81
2024-03-08T13:07:34.090Z,7.83
2024-03-08T13:10:16.740Z,7.87
2024-03-08T13:12:54.163Z,7.88
2024-03-08T13:15:30.630Z,7.91
2024-03-08T13:18:04.612Z,7.92
2024-03-08T13:20:50.579Z,7.92
2024-03-08T13:23:24.097Z,7.95
2024-03-08T13:25:58.852Z,7.98
2024-03-08T13:28:33.433Z,7.98
2024-03-08T13:31:15.149Z,7.97
2024-03-08T13:33:50.023Z,7.97
2024-03-08T13:36:26.134Z,7.96
2024-03-08T13:39:01.981Z,7.98
2024-03-08T13:41:35.554Z,8.02
2024-03-08T13:44:09.061Z,8.05
2024-03-08T13:46:43.477Z,8.07
2024-03-08T13:49:18.451Z,8.05
2024-03-08T13:51:51.422Z,8.05
2024-03-08T13:54:33.160Z,8.08
2024-03-08T13:57:08.506Z,8.12
2024-03-08T13:59:42.023Z,8.15
2024-03-08T14:02:16.260Z,8.17
2024-03-08T14:04:51.249Z,8.17
2024-03-08T14:07:26.239Z,8.15
2024-03-08T14:10:01.716Z,8.10
2024-03-08T14:12:37.651Z,8.06
2024-03-08T14:15:14.201Z,8.04
2024-03-08T14:17:48.626Z,8.04
2024-03-08T14:20:28.403Z,8.03
2024-03-08T14:23:08.153Z,8.03
2024-03-08T14:25:42.781Z,8.00
2024-03-08T14:28:24.661Z,7.96
2024-03-08T14:31:00.337Z,7.93
2024-03-08T14:33:35.346Z,7.93
2024-03-08T14:36:18.173Z,7.92
2024-03-08T14:38:52.585Z,7.92
2024-03-08T14:41:26.586Z,7.92
2024-03-08T14:44:03.285Z,7.89
2024-03-08T14:46:37.220Z,7.87
2024-03-08T14:49:11.484Z,7.85
2024-03-08T14:51:47.220Z,7.81
2024-03-08T14:54:24.748Z,7.77
2024-03-08T14:57:08.977Z,7.74
2024-03-08T14:59:47.148Z,7.73
2024-03-08T15:02:23.441Z,7.70
2024-03-08T15:05:00.156Z,7.69
2024-03-08T15:07:35.233Z,7.67
2024-03-08T15:10:16.510Z,7.64
2024-03-08T15:12:56.757Z,7.62
2024-03-08T15:15:31.777Z,7.59
2024-03-08T15:18:06.147Z,7.57
2024-03-08T15:20:42.736Z,7.54
2024-03-08T15:23:18.542Z,7.50
2024-03-08T15:25:52.012Z,7.47
2024-03-08T15:28:37.718Z,7.41
2024-03-08T15:31:13.309Z,7.38
2024-03-08T15:33:53.967Z,7.35
2024-03-08T15:36:31.007Z,7.32
2024-03-08T15:39:12.060Z,7.29
2024-03-08T15:41:50.517Z,7.26
2024-03-08T15:44:29.382Z,7.20
2024-03-08T15:47:11.834Z,7.18
2024-03-08T15:49:47.755Z,7.14
2024-03-08T15:52:26.590Z,7.08
2024-03-08T15:55:07.168Z,7.02
2024-03-08T15:57:43.208Z,6.95
2024-03-08T16:00:34.961Z,6.87
2024-03-08T16:03:13.493Z,6.81
2024-03-08T16:05:49.826Z,6.76
2024-03-08T16:08:24.693Z,6.71
2024-03-08T16:10:58.934Z,6.65
2024-03-08T16:13:34.287Z,6.58
2024-03-08T16:16:10.594Z,6.52
2024-03-08T16:18:44.301Z,6.43
2024-03-08T16:21:18.786Z,6.37
2024-03-08T16:23:53.290Z,6.30
2024-03-08T16:26:29.184Z,6.23
2024-03-08T16:29:02.931Z,6.13
2024-03-08T16:31:38.842Z,6.08
2024-03-08T16:34:12.584Z,6.02
2024-03-08T16:36:48.948Z,5.95
2024-03-08T16:39:25.860Z,5.88
2024-03-08T16:41:59.951Z,5.80
2024-03-08T16:44:33.324Z,5.71
2024-03-08T16:47:08.027Z,5.65
2024-03-08T16:49:46.995Z,5.60
2024-03-08T16:52:26.162Z,5.54
2024-03-08T16:55:07.312Z,5.49
2024-03-08T16:57:54.488Z,5.43
2024-03-08T17:00:37.408Z,5.35
2024-03-08T17:03:18.282Z,5.29
2024-03-08T17:05:55.997Z,5.22
2024-03-08T17:08:31.402Z,5.15
2024-03-08T17:11:05.286Z,5.10
2024-03-08T17:13:40.357Z,5.05
2024-03-08T17:16:15.905Z,5.00
2024-03-08T17:18:50.122Z,4.93
2024-03-08T17:21:23.375Z,4.86
2024-03-08T17:23:57.866Z,4.79
2024-03-08T17:26:31.567Z,4.73
2024-03-08T17:29:05.316Z,4.67
2024-03-08T17:31:40.764Z,4.60
2024-03-08T17:34:20.488Z,4.55
2024-03-08T17:36:59.158Z,4.50
2024-03-08T17:39:36.042Z,4.44
2024-03-08T17:42:12.086Z,4.40
2024-03-08T17:44:48.010Z,4.35
2024-03-08T17:47:26.330Z,4.30
2024-03-08T17:50:01.587Z,4.28
2024-03-08T17:52:38.311Z,4.24
2024-03-08T17:55:16.578Z,4.21
2024-03-08T17:57:53.146Z,4.16
2024-03-08T18:00:31.257Z,4.12
2024-03-08T18:03:07.010Z,4.06
2024-03-08T18:05:46.820Z,4.02
2024-03-08T18:08:24.005Z,3.97
2024-03-08T18:10:59.195Z,3.92
2024-03-08T18:13:38.128Z,3.88
2024-03-08T18:16:19.058Z,3.84
2024-03-08T18:19:02.882Z,3.80
2024-03-08T18:21:51.509Z,3.77
2024-03-08T18:24:29.177Z,3.74
2024-03-08T18:27:03.662Z,3.71
2024-03-08T18:29:38.081Z,3.68
2024-03-08T18:32:14.759Z,3.65
2024-03-08T18:34:56.798Z,3.61
2024-03-08T18:37:31.485Z,3.57
2024-03-08T18:40:10.267Z,3.52
2024-03-08T18:42:50.473Z,3.49
2024-03-08T18:45:33.229Z,3.43
2024-03-08T18:48:29.762Z,3.39
2024-03-08T18:51:14.996Z,3.35
2024-03-08T18:53:55.350Z,3.32
2024-03-08T18:56:31.940Z,3.29
2024-03-08T18:59:11.256Z,3.25
2024-03-08T19:01:49.830Z,3.22
2024-03-08T19:04:29.061Z,3.18
2024-03-08T19:07:04.734Z,3.13
2024-03-08T19:09:55.019Z,3.08
2024-03-08T19:12:50.217Z,3.04
2024-03-08T19:15:24.680Z,3.01
2024-03-08T19:18:01.531Z,2.97
2024-03-08T19:20:37.741Z,2.94
2024-03-08T19:23:13.345Z,2.89
2024-03-08T19:25:47.998Z,2.86
2024-03-08T19:28:25.627Z,2.82
2024-03-08T19:31:01.593Z,2.78
2024-03-08T19:36:29.575Z,2.71
2024-03-08T19:39:06.157Z,2.67
2024-03-08T19:41:42.782Z,2.64
2024-03-08T19:44:21.734Z,2.61
2024-03-08T19:46:58.473Z,2.57
2024-03-08T19:49:34.660Z,2.53
2024-03-08T19:52:12.261Z,2.49
2024-03-08T19:54:48.935Z,2.45
2024-03-08T19:57:22.865Z,2.42
2024-03-08T20:00:00.247Z,2.38
2024-03-08T20:02:34.418Z,2.35
2024-03-08T20:05:17.662Z,2.32
2024-03-08T20:07:53.920Z,2.28
2024-03-08T20:10:33.577Z,2.26
2024-03-08T20:13:11.990Z,2.24
2024-03-08T20:15:56.065Z,2.21
2024-03-08T20:18:34.530Z,2.19
2024-03-08T20:21:10.761Z,2.14
2024-03-08T20:23:46.476Z,2.11
2024-03-08T20:26:27.167Z,2.08
2024-03-08T20:29:00.952Z,2.05
2024-03-08T20:31:36.144Z,2.04
2024-03-08T20:34:11.237Z,2.01
2024-03-08T20:36:48.219Z,1.99
2024-03-08T20:39:24.220Z,1.98
2024-03-08T20:41:59.812Z,1.95
2024-03-08T20:44:33.372Z,1.93
2024-03-08T20:47:08.035Z,1.91
2024-03-08T20:49:41.849Z,1.89
2024-03-08T20:52:15.852Z,1.87
2024-03-08T20:54:51.797Z,1.85
2024-03-08T20:57:25.708Z,1.83
2024-03-08T21:00:02.854Z,1.81
2024-03-08T21:02:40.620Z,1.79
2024-03-08T21:05:15.166Z,1.78
2024-03-08T21:07:49.516Z,1.76
2024-03-08T21:10:26.633Z,1.74
2024-03-08T21:13:01.190Z,1.72
2024-03-08T21:15:35.238Z,1.71
2024-03-08T21:18:10.611Z,1.69
2024-03-08T21:20:43.870Z,1.68
2024-03-08T21:23:18.330Z,1.66
2024-03-08T21:25:52.050Z,1.66
2024-03-08T21:28:31.373Z,1.63
2024-03-08T21:31:08.027Z,1.61
2024-03-08T21:33:41.598Z,1.61
2024-03-08T21:36:18.445Z,1.60
2024-03-08T21:38:51.783Z,1.59
2024-03-08T21:41:25.246Z,1.56
2024-03-08T21:43:58.495Z,1.55
2024-03-08T21:46:32.083Z,1.53
2024-03-08T21:49:07.862Z,1.52
2024-03-08T21:51:48.190Z,1.51
2024-03-08T21:54:21.500Z,1.50
2024-03-08T21:56:55.837Z,1.48
2024-03-08T21:59:30.038Z,1.46
2024-03-08T22:02:05.101Z,1.43
2024-03-08T22:04:39.761Z,1.41
2024-03-08T22:07:14.890Z,1.40
2024-03-08T22:09:48.133Z,1.39
2024-03-08T22:12:21.575Z,1.37
2024-03-08T22:14:54.883Z,1.36
2024-03-08T22:17:27.940Z,1.34
2024-03-08T22:20:05.669Z,1.33
2024-03-08T22:22:39.081Z,1.32
2024-03-08T22:25:13.020Z,1.30
2024-03-08T22:27:49.778Z,1.29
2024-03-08T22:30:25.568Z,1.27
2024-03-08T22:32:58.848Z,1.29
2024-03-08T22:35:34.935Z,1.27
2024-03-08T22:38:10.720Z,1.26
2024-03-08T22:40:44.069Z,1.23
2024-03-08T22:43:18.600Z,1.21
2024-03-08T22:45:53.387Z,1.19
2024-03-08T22:48:26.660Z,1.16
2024-03-08T22:51:00.175Z,1.14
2024-03-08T22:53:33.372Z,1.14
2024-03-08T22:56:07.298Z,1.13
2024-03-08T22:58:43.445Z,1.11
2024-03-08T23:01:18.744Z,1.10
2024-03-08T23:03:53.900Z,1.09
2024-03-08T23:06:27.948Z,1.06
2024-03-08T23:09:01.341Z,1.04
2024-03-08T23:11:35.326Z,1.02
2024-03-08T23:14:08.422Z,0.99
2024-03-08T23:16:48.321Z,0.97
2024-03-08T23:19:22.065Z,0.95
2024-03-08T23:21:55.269Z,0.92
2024-03-08T23:24:28.861Z,0.89
2024-03-08T23:27:02.337Z,0.86
2024-03-08T23:29:35.316Z,0.83
2024-03-08T23:32:09.402Z,0.82
2024-03-08T23:34:42.297Z,0.81
2024-03-08T23:37:15.355Z,0.80
2024-03-08T23:39:48.443Z,0.78
2024-03-08T23:42:22.688Z,0.75
2024-03-08T23:44:55.584Z,0.73
2024-03-08T23:47:28.682Z,0.72
2024-03-08T23:50:02.392Z,0.70
2024-03-08T23:52:36.682Z,0.70
2024-03-08T23:55:11.379Z,0.70
2024-03-08T23:57:51.712Z,0.69
